Time;durP1;ratioP1;P1;durP2;ratioP2;P2;SDS_P1;SDS_P2;PMS_P1;PMS_P2;Temp;Humidity;BMP_temperature;BMP_pressure;BME280_temperature;BME280_humidity;BME280_pressure;Samples;Min_cycle;Max_cycle;Signal;HPM_P1;HPM_P2
2022/02/12 00:02:11;;;;;;;4.63;2.72;;;;;;;6.26;55.76;101657.56;5068931;28;20031;-71
2022/02/12 00:04:36;;;;;;;4.88;3.10;;;;;;;6.31;56.39;101676.88;5067529;28;20166;-70
2022/02/12 00:07:02;;;;;;;5.15;2.90;;;;;;;6.28;56.04;101676.16;5070149;28;20024;-71
2022/02/12 00:09:27;;;;;;;4.90;3.55;;;;;;;6.23;56.00;101681.69;5069659;28;20028;-71
2022/02/12 00:11:53;;;;;;;5.40;2.60;;;;;;;6.21;56.15;101680.94;5070423;28;20035;-70
2022/02/12 00:14:19;;;;;;;6.85;3.15;;;;;;;6.15;56.59;101689.22;5070158;28;20123;-71
2022/02/12 00:16:45;;;;;;;4.43;2.50;;;;;;;6.12;56.27;101689.34;5069922;28;20031;-70
2022/02/12 00:19:11;;;;;;;4.97;2.78;;;;;;;6.01;56.67;101688.13;5069694;28;20115;-71
2022/02/12 00:21:36;;;;;;;4.10;2.40;;;;;;;6.15;56.58;101705.19;5069811;28;20029;-70
2022/02/12 00:24:02;;;;;;;6.97;3.20;;;;;;;6.12;56.17;101707.13;5069797;28;20525;-71
2022/02/12 00:26:28;;;;;;;4.18;2.65;;;;;;;5.93;56.68;101696.47;5069634;28;20037;-71
2022/02/12 00:28:53;;;;;;;4.82;2.45;;;;;;;6.00;56.55;101716.56;5069929;28;20036;-71
2022/02/12 00:31:18;;;;;;;6.22;2.70;;;;;;;5.97;56.31;101707.88;5068574;28;20017;-71
2022/02/12 00:33:44;;;;;;;6.25;2.88;;;;;;;5.95;56.75;101715.91;5068262;28;20064;-71
2022/02/12 00:36:09;;;;;;;4.97;2.42;;;;;;;5.91;56.56;101706.34;5069755;28;20055;-70
2022/02/12 00:38:35;;;;;;;5.38;2.50;;;;;;;5.90;57.01;101720.59;5069605;28;20055;-70
2022/02/12 00:41:00;;;;;;;5.78;2.70;;;;;;;6.02;56.26;101712.03;5069452;28;20060;-70
2022/02/12 00:43:26;;;;;;;8.63;2.67;;;;;;;5.93;56.87;101709.78;5069494;28;20028;-70
2022/02/12 00:45:52;;;;;;;4.88;2.75;;;;;;;5.84;56.84;101709.38;5069490;28;20040;-71
2022/02/12 00:48:17;;;;;;;7.03;2.65;;;;;;;5.83;57.12;101719.16;5069155;28;20063;-70
2022/02/12 00:50:43;;;;;;;5.72;2.95;;;;;;;5.92;56.50;101697.44;5069233;28;20082;-71
2022/02/12 00:53:09;;;;;;;4.68;2.72;;;;;;;5.83;56.82;101716.47;5068563;28;20100;-70
2022/02/12 00:55:35;;;;;;;7.72;3.17;;;;;;;5.84;57.30;101723.53;5068796;28;20032;-71
2022/02/12 00:58:00;;;;;;;6.35;2.38;;;;;;;5.83;56.60;101723.59;5068679;28;20384;-71
2022/02/12 01:00:26;;;;;;;4.95;2.75;;;;;;;5.75;56.88;101712.41;5069316;28;20024;-71
2022/02/12 01:02:51;;;;;;;5.53;2.30;;;;;;;5.64;56.75;101704.91;5068733;28;20407;-67
2022/02/12 01:05:17;;;;;;;4.97;2.42;;;;;;;5.67;57.38;101715.41;5066286;28;20462;-67
2022/02/12 01:07:43;;;;;;;5.50;2.60;;;;;;;5.62;56.91;101720.09;5066299;28;20074;-68
2022/02/12 01:10:09;;;;;;;5.85;2.63;;;;;;;5.57;57.12;101718.56;5067744;28;20090;-67
2022/02/12 01:12:35;;;;;;;4.00;2.53;;;;;;;5.63;57.00;101720.94;5067253;28;20028;-68
2022/02/12 01:15:01;;;;;;;3.97;2.55;;;;;;;5.45;56.79;101716.47;5067658;28;20043;-68
2022/02/12 01:17:29;;;;;;;3.83;2.00;;;;;;;5.64;56.55;101728.88;5066390;28;20024;-68
2022/02/12 01:19:56;;;;;;;5.30;2.45;;;;;;;5.63;56.37;101718.28;5068115;28;20412;-68
2022/02/12 01:22:23;;;;;;;5.07;2.30;;;;;;;5.49;56.62;101726.91;5067907;28;20041;-68
2022/02/12 01:24:49;;;;;;;3.90;2.20;;;;;;;5.34;56.91;101719.59;5067817;28;20020;-67
2022/02/12 01:27:15;;;;;;;4.47;2.38;;;;;;;5.49;57.04;101742.88;5066485;28;20028;-67
2022/02/12 01:29:41;;;;;;;4.38;2.13;;;;;;;5.50;56.50;101739.28;5067651;28;20024;-68
2022/02/12 01:32:08;;;;;;;7.00;2.80;;;;;;;5.40;57.01;101731.75;5065311;28;20017;-68
2022/02/12 01:34:34;;;;;;;4.53;1.95;;;;;;;5.29;57.26;101729.56;5067614;28;20044;-68
2022/02/12 01:37:04;;;;;;;5.13;2.28;;;;;;;5.26;57.37;101727.06;5068047;28;20597;-68
2022/02/12 01:39:30;;;;;;;5.38;2.22;;;;;;;5.35;57.36;101733.78;5067639;28;20028;-68
2022/02/12 01:41:55;;;;;;;3.83;2.10;;;;;;;5.24;57.46;101738.69;5067875;28;20099;-67
2022/02/12 01:44:30;;;;;;;4.78;1.85;;;;;;;5.12;57.89;101736.56;5067862;28;20036;-69
2022/02/12 01:46:55;;;;;;;3.25;1.85;;;;;;;5.14;57.95;101755.97;5066806;28;20024;-68
2022/02/12 01:49:21;;;;;;;6.13;2.20;;;;;;;5.04;57.93;101739.56;5066456;28;20488;-68
2022/02/12 01:51:46;;;;;;;3.58;2.25;;;;;;;5.13;58.41;101757.78;5067794;28;20082;-68
2022/02/12 01:54:12;;;;;;;3.60;2.22;;;;;;;4.89;58.12;101729.56;5068957;28;20039;-68
2022/02/12 01:56:38;;;;;;;5.93;2.33;;;;;;;5.12;58.02;101742.72;5067478;28;20028;-68
2022/02/12 01:59:03;;;;;;;4.65;2.25;;;;;;;4.96;58.25;101725.69;5067640;28;20032;-67
2022/02/12 02:01:29;;;;;;;7.38;2.35;;;;;;;4.99;58.42;101746.00;5066451;28;20036;-68
2022/02/12 02:03:56;;;;;;;7.07;2.20;;;;;;;4.92;58.42;101737.41;5067452;28;20032;-67
2022/02/12 02:06:22;;;;;;;2.80;1.95;;;;;;;4.98;58.44;101729.16;5067285;28;20028;-68
2022/02/12 02:08:47;;;;;;;4.43;2.08;;;;;;;5.03;58.11;101751.09;5070931;28;20361;-68
2022/02/12 02:11:15;;;;;;;3.47;2.10;;;;;;;4.95;58.21;101739.06;5069080;28;20021;-68
2022/02/12 02:13:41;;;;;;;3.45;1.85;;;;;;;4.98;58.37;101750.44;5070400;28;20033;-68
2022/02/12 02:16:10;;;;;;;4.40;1.60;;;;;;;4.85;58.18;101738.59;5069060;28;20032;-68
2022/02/12 02:18:36;;;;;;;3.92;1.98;;;;;;;4.69;58.92;101748.13;5070750;28;20065;-68
2022/02/12 02:21:01;;;;;;;4.30;2.00;;;;;;;4.81;58.76;101760.91;5070897;28;20079;-67
2022/02/12 02:23:27;;;;;;;2.83;1.70;;;;;;;4.56;59.08;101736.28;5070805;28;20060;-68
2022/02/12 02:25:53;;;;;;;5.60;1.98;;;;;;;4.66;59.02;101753.56;5069230;28;20028;-68
2022/02/12 02:28:18;;;;;;;4.70;2.05;;;;;;;4.62;59.22;101765.25;5070294;28;20027;-68
2022/02/12 02:30:44;;;;;;;5.20;2.00;;;;;;;4.49;59.43;101759.53;5070256;28;20036;-67
2022/02/12 02:33:09;;;;;;;3.72;1.98;;;;;;;4.55;59.56;101779.72;5070113;28;20025;-68
2022/02/12 02:35:35;;;;;;;6.85;1.88;;;;;;;4.49;59.76;101778.13;5070210;28;20086;-68
2022/02/12 02:38:08;;;;;;;3.05;2.00;;;;;;;4.39;59.98;101781.25;5070894;28;20029;-68
2022/02/12 02:40:34;;;;;;;5.95;1.80;;;;;;;4.31;60.36;101788.63;5070550;28;20025;-67
2022/02/12 02:43:00;;;;;;;4.75;2.25;;;;;;;4.33;60.13;101798.25;5070973;28;20029;-67
2022/02/12 02:45:26;;;;;;;3.63;1.98;;;;;;;4.27;60.53;101801.19;5070089;28;20485;-68
2022/02/12 02:47:57;;;;;;;4.22;1.77;;;;;;;4.20;60.67;101804.97;5070792;28;20032;-68
2022/02/12 02:56:00;;;;;;;;;;;;;;;4.11;61.21;101809.78;5071180;28;20097;-68
2022/02/12 02:58:34;;;;;;;6.47;3.03;;;;;;;4.08;61.43;101807.22;5070515;28;20329;-68
2022/02/12 03:01:06;;;;;;;4.18;1.80;;;;;;;4.00;61.63;101809.31;5066658;28;20459;-67
2022/02/12 03:03:32;;;;;;;3.75;2.13;;;;;;;3.92;61.97;101812.25;5070893;28;20040;-67
2022/02/12 03:05:58;;;;;;;3.67;2.10;;;;;;;3.89;61.85;101819.44;5070284;28;20028;-68
2022/02/12 03:08:28;;;;;;;3.03;1.80;;;;;;;3.85;62.13;101818.72;5070463;28;20040;-68
2022/02/12 03:10:55;;;;;;;3.78;2.28;;;;;;;3.77;62.35;101822.56;5070172;28;20495;-68
2022/02/12 03:13:21;;;;;;;3.85;1.95;;;;;;;3.74;62.94;101835.94;5070197;28;20032;-68
2022/02/12 03:15:47;;;;;;;2.90;1.85;;;;;;;3.59;63.12;101815.25;5070014;28;20029;-67
2022/02/12 03:18:12;;;;;;;5.75;2.25;;;;;;;3.49;63.48;101816.50;5070536;28;20456;-68
2022/02/12 03:20:38;;;;;;;3.70;2.15;;;;;;;3.48;63.63;101834.19;5067123;28;20045;-68
2022/02/12 03:23:04;;;;;;;2.95;2.05;;;;;;;3.46;64.28;101824.56;5068744;28;20467;-68
2022/02/12 03:25:30;;;;;;;4.45;2.50;;;;;;;3.55;64.75;101842.81;5068787;28;20463;-68
2022/02/12 03:27:57;;;;;;;4.55;2.22;;;;;;;3.47;64.81;101845.72;5069366;28;20070;-69
2022/02/12 03:30:28;;;;;;;4.72;2.33;;;;;;;3.41;65.32;101843.28;5069783;28;20376;-67
2022/02/12 03:32:54;;;;;;;3.90;2.42;;;;;;;3.38;65.72;101847.81;5068238;28;20468;-68
2022/02/12 03:35:22;;;;;;;4.03;2.10;;;;;;;3.21;66.16;101834.25;5069907;28;20032;-68
2022/02/12 03:37:49;;;;;;;4.22;2.33;;;;;;;3.33;66.35;101857.72;5069568;28;20047;-68
2022/02/12 03:40:15;;;;;;;5.45;2.28;;;;;;;3.17;66.81;101860.03;5069803;28;20036;-68
2022/02/12 03:42:41;;;;;;;3.45;2.10;;;;;;;3.12;67.07;101866.38;5069447;28;20032;-68
2022/02/12 03:45:07;;;;;;;3.88;2.42;;;;;;;3.15;67.35;101863.63;5067414;28;20399;-67
2022/02/12 03:47:32;;;;;;;5.95;2.38;;;;;;;3.16;67.42;101854.78;5070091;28;20123;-68
2022/02/12 03:49:58;;;;;;;5.82;2.75;;;;;;;3.29;67.58;101866.69;5069902;28;20053;-68
2022/02/12 03:52:23;;;;;;;5.35;2.53;;;;;;;3.21;67.47;101859.00;5069509;28;20024;-68
2022/02/12 03:54:49;;;;;;;5.38;2.53;;;;;;;3.13;67.31;101854.88;5069483;28;20086;-68
2022/02/12 03:57:14;;;;;;;5.68;2.83;;;;;;;3.06;67.75;101864.78;5068046;28;20036;-67
2022/02/12 03:59:40;;;;;;;7.68;2.80;;;;;;;3.02;68.85;101867.59;5069474;28;20033;-68
2022/02/12 04:02:05;;;;;;;5.82;2.40;;;;;;;3.04;68.80;101879.00;5069148;28;20027;-68
2022/02/12 04:04:32;;;;;;;6.10;2.83;;;;;;;2.95;68.63;101860.75;5068284;28;20625;-68
2022/02/12 04:06:58;;;;;;;5.10;2.20;;;;;;;2.96;68.53;101889.84;5068980;28;20067;-69
2022/02/12 04:09:23;;;;;;;6.78;2.90;;;;;;;2.94;68.85;101881.09;5068977;28;20031;-69
2022/02/12 04:11:49;;;;;;;4.30;2.50;;;;;;;2.92;69.32;101876.75;5069218;28;20047;-68
2022/02/12 04:14:14;;;;;;;4.65;2.60;;;;;;;2.86;69.75;101890.19;5068654;28;20036;-68
2022/02/12 04:16:40;;;;;;;4.10;2.50;;;;;;;2.92;69.74;101892.66;5069088;28;20106;-68
2022/02/12 04:19:05;;;;;;;5.95;2.55;;;;;;;2.78;70.25;101882.50;5068816;28;20107;-67
2022/02/12 04:21:31;;;;;;;5.38;2.67;;;;;;;2.70;70.34;101886.31;5069208;28;20032;-68
2022/02/12 04:23:56;;;;;;;4.93;2.65;;;;;;;2.79;70.52;101889.53;5068763;28;20439;-68
2022/02/12 04:26:22;;;;;;;6.43;3.10;;;;;;;2.67;71.05;101895.19;5068522;28;20028;-68
2022/02/12 04:28:47;;;;;;;4.47;2.72;;;;;;;2.87;70.31;101900.72;5067494;28;20066;-68
2022/02/12 04:31:13;;;;;;;6.97;3.25;;;;;;;2.76;70.92;101905.50;5068315;28;20495;-68
2022/02/12 04:33:38;;;;;;;6.35;2.97;;;;;;;2.73;71.13;101905.59;5068397;28;20066;-68
2022/02/12 04:36:04;;;;;;;4.03;2.38;;;;;;;2.69;70.90;101905.75;5069047;28;20500;-68
2022/02/12 04:38:29;;;;;;;6.18;3.20;;;;;;;2.72;71.50;101913.59;5068544;28;20043;-68
2022/02/12 04:40:55;;;;;;;6.20;2.70;;;;;;;2.72;71.10;101905.66;5068317;28;20047;-68
2022/02/12 04:43:20;;;;;;;8.18;3.40;;;;;;;2.61;71.49;101908.59;5068556;28;20055;-68
2022/02/12 04:45:46;;;;;;;6.13;3.25;;;;;;;2.65;71.88;101902.34;5068432;28;20102;-68
2022/02/12 04:48:11;;;;;;;5.30;2.65;;;;;;;2.51;71.86;101877.19;5068573;28;20030;-68
2022/02/12 04:50:37;;;;;;;5.70;2.67;;;;;;;2.56;72.29;101909.66;5068409;28;20037;-68
2022/02/12 04:53:03;;;;;;;4.22;2.70;;;;;;;2.48;72.58;101919.63;5068479;28;20127;-68
2022/02/12 04:55:28;;;;;;;9.15;3.05;;;;;;;2.42;73.14;101927.75;5067941;28;20027;-68
2022/02/12 04:57:54;;;;;;;7.07;3.78;;;;;;;2.29;73.69;101914.84;5067690;28;20052;-68
2022/02/12 05:00:19;;;;;;;6.18;2.75;;;;;;;2.42;73.63;101918.88;5067932;28;20081;-68
2022/02/12 05:02:46;;;;;;;8.63;3.08;;;;;;;2.40;73.75;101919.84;5066833;28;20099;-68
2022/02/12 05:05:12;;;;;;;6.57;3.75;;;;;;;2.30;73.97;101895.41;5063933;28;20020;-68
2022/02/12 05:07:40;;;;;;;6.60;3.55;;;;;;;2.38;74.36;101922.53;5066720;28;20454;-68
2022/02/12 05:10:07;;;;;;;6.78;3.38;;;;;;;2.30;74.13;101928.97;5066110;28;20098;-68
2022/02/12 05:12:33;;;;;;;4.70;3.10;;;;;;;2.24;74.69;101923.84;5068144;28;20499;-68
2022/02/12 05:14:58;;;;;;;5.10;3.28;;;;;;;2.32;74.78;101941.25;5066526;28;20111;-68
2022/02/12 05:17:23;;;;;;;5.78;3.40;;;;;;;2.27;74.50;101934.34;5066723;28;20029;-68
2022/02/12 05:19:49;;;;;;;5.00;3.20;;;;;;;2.18;75.42;101931.94;5067557;28;20044;-68
2022/02/12 05:22:14;;;;;;;6.63;3.60;;;;;;;2.13;75.54;101931.22;5067211;28;20033;-68
2022/02/12 05:24:42;;;;;;;6.93;2.92;;;;;;;2.19;75.44;101938.97;5067248;28;20032;-67
2022/02/12 05:27:07;;;;;;;6.50;3.85;;;;;;;2.07;75.52;101916.34;5067310;28;20059;-68
2022/02/12 05:29:33;;;;;;;4.50;3.15;;;;;;;1.93;75.70;101910.59;5065689;28;20024;-68
2022/02/12 05:31:58;;;;;;;5.18;3.40;;;;;;;1.93;76.41;101926.47;5066661;28;20020;-68
2022/02/12 05:34:24;;;;;;;4.88;2.95;;;;;;;1.92;76.82;101932.69;5066146;28;20032;-68
2022/02/12 05:36:49;;;;;;;6.40;3.42;;;;;;;1.97;77.16;101951.06;5067845;28;20043;-68
2022/02/12 05:39:14;;;;;;;7.78;3.30;;;;;;;1.70;77.89;101915.63;5066252;28;20055;-68
2022/02/12 05:41:40;;;;;;;6.95;4.32;;;;;;;1.78;77.83;101928.66;5066071;28;20033;-70
2022/02/12 05:44:06;;;;;;;9.98;4.95;;;;;;;1.86;77.54;101943.41;5067253;28;20025;-68
2022/02/12 05:46:31;;;;;;;8.98;4.82;;;;;;;1.84;77.97;101961.09;5068327;28;20040;-69
2022/02/12 05:48:57;;;;;;;10.68;5.22;;;;;;;1.78;78.25;101971.81;5067603;28;20028;-67
2022/02/12 05:51:22;;;;;;;8.23;4.10;;;;;;;1.66;78.81;101963.34;5067833;28;20535;-69
2022/02/12 05:53:49;;;;;;;7.78;4.10;;;;;;;1.60;78.69;101950.28;5067388;28;20391;-68
2022/02/12 05:56:15;;;;;;;8.07;4.05;;;;;;;1.60;79.02;101964.38;5067959;28;20078;-68
2022/02/12 05:58:41;;;;;;;13.07;4.40;;;;;;;1.66;79.63;101985.38;5067748;28;20109;-68
2022/02/12 06:01:06;;;;;;;6.85;4.65;;;;;;;1.57;79.58;101988.25;5067882;28;20112;-68
2022/02/12 06:03:32;;;;;;;8.27;4.68;;;;;;;1.53;79.68;101986.59;5067993;28;20033;-68
2022/02/12 06:05:57;;;;;;;6.95;4.65;;;;;;;1.54;79.67;101983.03;5067114;28;20028;-68
2022/02/12 06:08:23;;;;;;;5.80;3.70;;;;;;;1.41;80.06;101970.13;5067210;28;20032;-68
2022/02/12 06:10:50;;;;;;;11.13;3.85;;;;;;;1.53;80.32;102002.44;5066453;28;20036;-68
2022/02/12 06:13:17;;;;;;;8.02;4.35;;;;;;;1.49;80.33;102000.75;5066825;28;20044;-68
2022/02/12 06:15:42;;;;;;;9.77;3.83;;;;;;;1.35;80.87;101984.38;5065091;28;20024;-68
2022/02/12 06:18:08;;;;;;;9.40;5.05;;;;;;;1.48;80.94;102009.59;5066512;28;20107;-69
2022/02/12 06:20:33;;;;;;;13.98;6.80;;;;;;;1.55;80.82;102008.56;5067727;28;20098;-67
2022/02/12 06:22:59;;;;;;;12.98;5.13;;;;;;;1.57;81.06;102013.81;5066999;28;20024;-67
2022/02/12 06:25:26;;;;;;;10.75;4.50;;;;;;;1.59;81.42;102018.16;5067528;28;20388;-67
2022/02/12 06:27:51;;;;;;;10.98;4.20;;;;;;;1.67;81.61;102034.72;5065644;28;20060;-67
2022/02/12 06:30:17;;;;;;;9.60;4.18;;;;;;;1.58;81.70;102027.00;5066625;28;20466;-67
2022/02/12 06:32:42;;;;;;;8.50;4.18;;;;;;;1.54;81.88;102027.97;5066864;28;20047;-68
2022/02/12 06:35:09;;;;;;;9.90;5.18;;;;;;;1.63;81.80;102038.34;5065227;28;20024;-68
2022/02/12 06:37:34;;;;;;;7.63;4.97;;;;;;;1.63;81.93;102037.47;5066976;28;20033;-67
2022/02/12 06:40:00;;;;;;;16.20;6.38;;;;;;;1.65;82.56;102048.88;5066784;28;20039;-68
2022/02/12 06:42:26;;;;;;;12.15;5.65;;;;;;;1.61;82.63;102050.72;5066607;28;20040;-68
2022/02/12 06:44:51;;;;;;;12.75;6.45;;;;;;;1.71;83.02;102062.81;5065916;28;20037;-68
2022/02/12 06:47:17;;;;;;;14.93;6.93;;;;;;;1.73;83.29;102055.72;5067190;28;20063;-68
2022/02/12 06:49:44;;;;;;;12.32;6.70;;;;;;;1.75;83.16;102061.84;5067288;28;20476;-67
2022/02/12 06:52:09;;;;;;;14.00;6.50;;;;;;;1.57;84.10;102045.53;5065291;28;20459;-68
2022/02/12 06:54:35;;;;;;;11.75;6.00;;;;;;;1.64;84.27;102062.97;5069883;28;20036;-68
2022/02/12 06:57:00;;;;;;;11.45;6.05;;;;;;;1.71;84.29;102070.75;5069142;28;20039;-68
2022/02/12 06:59:26;;;;;;;13.57;5.63;;;;;;;1.76;84.92;102076.81;5070173;28;20031;-72
2022/02/12 07:01:52;;;;;;;9.18;5.15;;;;;;;1.76;85.22;102074.16;5070357;28;20032;-72
2022/02/12 07:04:17;;;;;;;9.55;5.38;;;;;;;1.86;84.84;102075.69;5070845;28;20510;-72
2022/02/12 07:06:43;;;;;;;10.20;6.05;;;;;;;1.90;84.73;102076.44;5071640;28;20025;-72
2022/02/12 07:09:11;;;;;;;11.00;6.18;;;;;;;1.93;85.02;102077.25;5070527;28;20036;-68
2022/02/12 07:11:37;;;;;;;10.77;5.85;;;;;;;2.03;84.97;102085.81;5070509;28;20066;-68
2022/02/12 07:14:03;;;;;;;12.07;5.68;;;;;;;2.03;85.28;102083.19;5070794;28;20448;-68
2022/02/12 07:16:28;;;;;;;11.27;6.07;;;;;;;2.10;84.78;102088.28;5070322;28;20032;-68
2022/02/12 07:18:54;;;;;;;6.95;5.30;;;;;;;2.15;84.59;102083.75;5070057;28;20111;-69
2022/02/12 07:21:19;;;;;;;11.50;6.05;;;;;;;2.32;83.78;102088.59;5070317;28;20127;-68
2022/02/12 07:23:45;;;;;;;10.60;5.28;;;;;;;2.51;82.75;102108.41;5070303;28;20460;-69
2022/02/12 07:26:11;;;;;;;10.13;6.32;;;;;;;2.52;82.96;102107.53;5068515;28;20497;-68
2022/02/12 07:28:40;;;;;;;10.20;6.10;;;;;;;2.52;82.37;102099.56;5068272;28;20024;-68
2022/02/12 07:31:12;;;;;;;9.88;6.50;;;;;;;2.62;82.29;102105.47;5068707;28;20059;-68
2022/02/12 07:33:38;;;;;;;13.57;7.82;;;;;;;2.65;82.66;102108.03;5069743;28;20162;-68
2022/02/12 07:36:05;;;;;;;10.90;7.00;;;;;;;2.75;82.33;102117.47;5070276;28;20036;-68
2022/02/12 07:38:30;;;;;;;12.50;6.75;;;;;;;2.75;81.87;102118.38;5069541;28;20032;-68
2022/02/12 07:40:56;;;;;;;12.13;6.97;;;;;;;2.82;81.54;102125.22;5068629;28;20847;-68
2022/02/12 07:43:21;;;;;;;13.93;7.15;;;;;;;2.91;81.31;102124.09;5068141;28;20024;-68
2022/02/12 07:45:47;;;;;;;8.48;6.10;;;;;;;3.02;81.18;102132.59;5069562;28;20320;-68
2022/02/12 07:48:12;;;;;;;13.75;8.05;;;;;;;3.11;81.16;102129.72;5068283;28;20111;-69
2022/02/12 07:50:38;;;;;;;15.13;7.78;;;;;;;3.15;80.19;102126.03;5069662;28;20039;-68
2022/02/12 07:53:04;;;;;;;12.48;7.50;;;;;;;3.29;79.53;102131.84;5069768;28;20340;-68
2022/02/12 07:55:31;;;;;;;20.48;8.32;;;;;;;3.43;78.70;102145.56;5068255;28;20654;-68
2022/02/12 07:57:57;;;;;;;11.80;7.60;;;;;;;3.51;78.60;102146.22;5069625;28;20396;-67
2022/02/12 08:00:24;;;;;;;12.50;7.57;;;;;;;3.57;77.89;102132.75;5069425;28;20024;-68
2022/02/12 08:02:50;;;;;;;9.65;6.57;;;;;;;3.65;77.22;102141.34;5069069;28;20157;-68
2022/02/12 08:05:16;;;;;;;10.23;6.38;;;;;;;3.69;76.42;102130.59;5066925;28;20119;-68
2022/02/12 08:07:42;;;;;;;12.75;6.88;;;;;;;3.88;75.76;102145.03;5068581;28;20753;-68
2022/02/12 08:12:55;;;;;;;8.10;6.05;;;;;;;4.11;74.07;102145.19;5068565;28;20043;-68
2022/02/12 08:15:21;;;;;;;10.45;5.97;;;;;;;4.18;73.29;102140.53;5067313;28;20032;-68
2022/02/12 08:17:47;;;;;;;10.70;6.45;;;;;;;4.32;72.40;102143.63;5069161;28;20039;-68
2022/02/12 08:20:13;;;;;;;8.95;6.15;;;;;;;4.30;72.21;102126.84;5068568;28;20048;-68
2022/02/12 08:22:40;;;;;;;8.27;5.70;;;;;;;4.42;71.04;102126.44;5067178;28;20526;-68
2022/02/12 08:25:06;;;;;;;7.13;5.40;;;;;;;4.56;69.86;102141.00;5067323;28;20032;-67
2022/02/12 08:27:32;;;;;;;8.32;5.53;;;;;;;4.53;69.67;102134.91;5064823;28;20039;-68
2022/02/12 08:29:58;;;;;;;9.63;5.68;;;;;;;4.61;69.83;102143.47;5063761;28;20404;-68
2022/02/12 08:32:23;;;;;;;8.75;5.32;;;;;;;4.66;69.34;102145.06;5066899;28;20028;-68
2022/02/12 08:34:50;;;;;;;10.60;5.70;;;;;;;4.65;68.57;102139.81;5065880;28;20024;-67
2022/02/12 08:37:17;;;;;;;7.90;5.38;;;;;;;4.81;68.39;102164.06;5067682;28;20020;-68
2022/02/12 08:39:43;;;;;;;10.40;6.32;;;;;;;4.81;68.51;102154.31;5067550;28;20124;-68
2022/02/12 08:42:09;;;;;;;7.50;5.45;;;;;;;4.87;67.87;102164.69;5067972;28;20082;-68
2022/02/12 08:44:35;;;;;;;8.93;5.97;;;;;;;4.98;67.38;102165.19;5067903;28;20072;-68
2022/02/12 08:47:02;;;;;;;9.82;5.28;;;;;;;5.06;67.08;102162.28;5067755;28;20480;-68
2022/02/12 08:49:28;;;;;;;8.48;4.85;;;;;;;5.06;66.42;102162.28;5067708;28;20055;-67
2022/02/12 08:51:54;;;;;;;8.05;5.43;;;;;;;5.17;65.73;102170.72;5067559;28;20147;-68
2022/02/12 08:54:19;;;;;;;8.45;5.10;;;;;;;5.22;65.13;102174.09;5066225;28;20127;-68
2022/02/12 08:56:45;;;;;;;8.60;5.00;;;;;;;5.28;64.59;102174.72;5067903;28;20024;-71
2022/02/12 08:59:12;;;;;;;6.68;5.03;;;;;;;5.36;64.24;102177.13;5068107;28;20024;-71
2022/02/12 09:01:40;;;;;;;7.25;4.55;;;;;;;5.46;64.15;102181.16;5068444;28;20511;-71
2022/02/12 09:04:07;;;;;;;6.80;5.25;;;;;;;5.48;63.58;102174.84;5067164;28;20102;-71
2022/02/12 09:06:33;;;;;;;7.53;5.45;;;;;;;5.58;62.80;102175.41;5068735;28;20086;-71
2022/02/12 09:09:01;;;;;;;7.97;4.88;;;;;;;5.62;62.27;102179.66;5068853;28;20795;-71
2022/02/12 09:11:26;;;;;;;9.27;5.40;;;;;;;5.65;62.19;102180.44;5066371;28;20021;-71
2022/02/12 09:13:53;;;;;;;8.35;5.38;;;;;;;5.74;61.78;102184.53;5066912;28;20032;-71
2022/02/12 09:16:21;;;;;;;6.63;5.00;;;;;;;5.77;61.21;102187.94;5068527;28;20032;-71
2022/02/12 09:18:48;;;;;;;6.97;4.47;;;;;;;5.83;61.21;102185.06;5065042;28;20028;-72
2022/02/12 09:21:14;;;;;;;6.40;4.72;;;;;;;5.85;60.35;102185.00;5066647;28;20106;-71
2022/02/12 09:23:40;;;;;;;5.95;4.40;;;;;;;5.97;60.36;102196.03;5068439;28;20064;-71
2022/02/12 09:26:05;;;;;;;8.93;5.50;;;;;;;6.02;60.39;102194.09;5068350;28;20056;-71
2022/02/12 09:28:31;;;;;;;8.93;5.45;;;;;;;6.08;59.97;102196.50;5067932;28;20073;-71
2022/02/12 09:30:56;;;;;;;9.20;5.50;;;;;;;6.10;59.71;102189.31;5068214;28;20071;-71
2022/02/12 09:33:22;;;;;;;8.27;5.35;;;;;;;6.11;59.86;102175.09;5068088;28;20028;-71
2022/02/12 09:35:53;;;;;;;9.68;5.15;;;;;;;6.25;59.21;102198.50;5067757;28;20052;-71
2022/02/12 09:38:19;;;;;;;9.45;5.30;;;;;;;6.30;59.09;102199.19;5066411;28;20024;-71
2022/02/12 09:40:45;;;;;;;7.93;4.63;;;;;;;6.37;59.18;102206.00;5066739;28;20024;-71
2022/02/12 09:43:11;;;;;;;9.63;5.75;;;;;;;6.40;58.67;102197.88;5066429;28;20581;-71
2022/02/12 09:45:48;;;;;;;11.73;5.10;;;;;;;6.48;58.29;102199.28;5066888;28;20029;-71
2022/02/12 09:48:15;;;;;;;7.20;4.60;;;;;;;6.69;57.32;102214.41;5067503;28;20495;-71
2022/02/12 09:50:41;;;;;;;8.30;5.22;;;;;;;6.69;57.21;102197.53;5068285;28;20032;-70
2022/02/12 09:53:07;;;;;;;7.38;5.32;;;;;;;6.79;57.33;102207.78;5067483;28;20024;-70
2022/02/12 09:55:35;;;;;;;7.05;4.70;;;;;;;7.00;57.51;102214.00;5067854;28;20028;-70
2022/02/12 09:58:02;;;;;;;8.82;5.72;;;;;;;7.12;56.53;102208.09;5067847;28;20025;-71
2022/02/12 10:00:28;;;;;;;12.05;5.18;;;;;;;7.31;55.96;102209.03;5066255;28;20108;-71
2022/02/12 10:02:54;;;;;;;6.70;5.13;;;;;;;7.48;54.92;102197.63;5066333;28;20111;-69
2022/02/12 10:05:29;;;;;;;8.60;4.50;;;;;;;7.84;54.43;102202.09;5067885;28;20093;-68
2022/02/12 10:08:15;;;;;;;8.82;5.15;;;;;;;8.24;53.55;102222.50;5066035;28;20052;-71
2022/02/12 10:10:41;;;;;;;6.97;4.57;;;;;;;8.77;52.16;102205.56;5066943;28;20052;-71
2022/02/12 10:13:12;;;;;;;6.53;4.38;;;;;;;9.49;50.03;102197.34;5067365;28;20028;-71
2022/02/12 10:15:48;;;;;;;7.05;4.53;;;;;;;10.24;48.36;102199.38;5066086;28;20116;-71
2022/02/12 10:18:14;;;;;;;7.90;4.78;;;;;;;10.89;46.66;102177.63;5066266;28;20028;-68
2022/02/12 10:20:42;;;;;;;7.50;5.05;;;;;;;11.36;45.34;102183.66;5066269;28;20057;-68
2022/02/12 10:23:09;;;;;;;8.38;5.30;;;;;;;11.53;44.55;102186.19;5066919;28;20056;-68
2022/02/12 10:25:37;;;;;;;6.63;4.63;;;;;;;11.48;43.83;102182.91;5067462;28;20412;-68
2022/02/12 10:28:04;;;;;;;7.20;4.45;;;;;;;11.37;44.33;102180.03;5068248;28;20756;-68
2022/02/12 10:30:31;;;;;;;7.32;5.10;;;;;;;11.10;44.97;102178.16;5071361;28;20070;-68
2022/02/12 10:33:02;;;;;;;6.63;4.82;;;;;;;10.79;45.26;102183.63;5070204;28;20079;-71
2022/02/12 10:35:29;;;;;;;8.98;5.15;;;;;;;10.56;45.96;102182.31;5070842;28;20036;-71
2022/02/12 10:38:00;;;;;;;6.30;5.05;;;;;;;10.37;47.01;102184.31;5069454;28;20028;-68
2022/02/12 10:40:27;;;;;;;8.75;5.05;;;;;;;10.24;47.09;102179.75;5071319;28;20115;-68
2022/02/12 10:42:53;;;;;;;7.75;5.35;;;;;;;10.10;47.28;102174.31;5070649;28;20041;-68
2022/02/12 10:45:19;;;;;;;7.85;4.93;;;;;;;10.01;47.43;102175.66;5070880;28;20060;-68
2022/02/12 10:47:45;;;;;;;7.55;4.57;;;;;;;9.90;47.75;102167.31;5070985;28;20093;-68
2022/02/12 10:50:12;;;;;;;9.35;4.88;;;;;;;9.79;47.35;102174.22;5071038;28;20075;-68
2022/02/12 10:53:00;;;;;;;6.32;4.82;;;;;;;9.72;48.31;102173.72;5067286;28;20501;-68
2022/02/12 10:55:31;;;;;;;7.07;4.97;;;;;;;9.63;48.38;102160.81;5069325;28;20446;-68
2022/02/12 10:58:14;;;;;;;7.80;4.97;;;;;;;9.56;48.75;102174.63;5068951;28;20035;-68
2022/02/12 11:00:41;;;;;;;6.90;4.75;;;;;;;9.56;48.31;102174.63;5070885;28;20112;-68
2022/02/12 11:03:16;;;;;;;7.22;5.13;;;;;;;9.44;48.43;102168.13;5069289;28;20044;-68
2022/02/12 11:05:48;;;;;;;8.02;4.30;;;;;;;9.35;48.91;102163.25;5069470;28;20025;-66
2022/02/12 11:08:14;;;;;;;4.55;3.78;;;;;;;9.31;49.19;102169.72;5069044;28;20017;-66
2022/02/12 11:10:40;;;;;;;6.18;4.03;;;;;;;9.26;48.69;102163.75;5068084;28;20105;-66
2022/02/12 11:13:07;;;;;;;6.32;4.30;;;;;;;9.13;49.08;102150.13;5069297;28;20418;-66
2022/02/12 11:15:33;;;;;;;5.63;3.70;;;;;;;9.09;48.87;102150.38;5069408;28;20028;-66
2022/02/12 11:18:01;;;;;;;7.38;4.57;;;;;;;9.06;49.69;102146.06;5069722;28;20545;-66
2022/02/12 11:20:28;;;;;;;6.53;4.47;;;;;;;9.09;50.09;102153.94;5069494;28;20072;-66
2022/02/12 11:23:18;;;;;;;7.20;4.47;;;;;;;9.07;50.01;102149.63;5068796;28;20434;-66
2022/02/12 11:25:44;;;;;;;5.40;3.67;;;;;;;9.04;50.04;102139.06;5064924;28;20037;-66
2022/02/12 11:28:12;;;;;;;8.35;4.10;;;;;;;9.00;49.88;102133.00;5066011;28;20341;-66
2022/02/12 11:30:42;;;;;;;7.05;3.70;;;;;;;9.07;49.89;102138.91;5063318;28;20037;-66
2022/02/12 11:33:21;;;;;;;4.85;4.00;;;;;;;9.03;49.73;102140.88;5066078;28;20427;-66
2022/02/12 11:36:12;;;;;;;7.03;4.30;;;;;;;9.04;49.74;102142.63;5063704;28;20039;-66
2022/02/12 11:38:40;;;;;;;6.32;4.07;;;;;;;9.08;50.17;102149.53;5064654;28;20020;-67